Ana Sayfa
METAR-TAF:

METAR-TAF

Havaalanları :

Henri Coandă Uluslararası Havalimanı

Bükreş, Romanya

Enlem: 44-33N, Boylam: 026-06E, yükseklik: 95 m

Güncel hava durumu gözlemi

Rapor saat 15:30 UTC de 41 dakika önce yapıldı.
Rüzgar doğu/güneydoğudan 7 kt
Sıcaklık 31°C
Nem 29%
Basınç 1020 hPa
Görüş mesafesi 10 km veya daha fazla
1500 m altında bulut yok ve kümülonimbus yok

METAR: LROP 201530Z 11007KT CAVOK 31/11 Q1020 NOSIG

Saat: 19:11 (16:11 UTC)

Tahmin

Rapor saat 11:00 UTC de 5 saat ve 11 dakika önce yapıldı.
Ayın 20'si saat 12 UTC'den ayın 21'si saat 12 UTC'ye kadar geçerli Tahmin
Rüzgar değişken yönden 4 kt
Görüş mesafesi 10 km veya daha fazla
1500 m altında bulut yok ve kümülonimbus yok

TAF: LROP 201100Z 2012/2112 VRB04KT CAVOK

4.000'den fazla havaalanı için hava durumu gözlemleri ve tahminleri (METAR ve TAF raporları).

Kullanılabilir istasyonlar harita üzerinde sarı ve kırmızı noktalarla gösterilir.

İstasyonun adını görmek için fareyi noktanın üzerinde gezdirin.

Sonrasında hava gözlem ve tahminlerini görmek için tıklayın.

Haritayı değiştirmek için: yaklaştırmak için siyah artı işaretli yeşil düğmeye ve uzaklaştırmak için de eksi işaretli düğmeye hızla tıklayın; bitişik haritalar için yeşil okları kullanın.


METAR-TAF: